sensor_id;sensor_type;location;lat;lon;timestamp;P1;durP1;ratioP1;P2;durP2;ratioP2
43152;SDS011;28756;49.064;9.290;2022-09-12T00:00:26;4.05;;;3.50;;
43152;SDS011;28756;49.064;9.290;2022-09-12T00:02:52;5.07;;;3.88;;
43152;SDS011;28756;49.064;9.290;2022-09-12T00:05:19;4.95;;;4.35;;
43152;SDS011;28756;49.064;9.290;2022-09-12T00:07:46;4.95;;;4.10;;
43152;SDS011;28756;49.064;9.290;2022-09-12T00:10:12;4.57;;;3.90;;
43152;SDS011;28756;49.064;9.290;2022-09-12T00:12:38;4.68;;;3.80;;
43152;SDS011;28756;49.064;9.290;2022-09-12T00:15:04;3.92;;;3.53;;
43152;SDS011;28756;49.064;9.290;2022-09-12T00:17:34;5.55;;;3.60;;
43152;SDS011;28756;49.064;9.290;2022-09-12T00:20:03;4.47;;;3.92;;
43152;SDS011;28756;49.064;9.290;2022-09-12T00:22:32;5.22;;;4.45;;
43152;SDS011;28756;49.064;9.290;2022-09-12T00:24:58;6.18;;;3.65;;
43152;SDS011;28756;49.064;9.290;2022-09-12T00:27:24;4.13;;;3.72;;
43152;SDS011;28756;49.064;9.290;2022-09-12T00:29:51;4.40;;;4.00;;
43152;SDS011;28756;49.064;9.290;2022-09-12T00:32:17;4.13;;;3.65;;
43152;SDS011;28756;49.064;9.290;2022-09-12T00:34:43;5.57;;;3.90;;
43152;SDS011;28756;49.064;9.290;2022-09-12T00:37:08;5.38;;;4.10;;
43152;SDS011;28756;49.064;9.290;2022-09-12T00:39:34;4.28;;;3.85;;
43152;SDS011;28756;49.064;9.290;2022-09-12T00:42:00;4.30;;;3.90;;
43152;SDS011;28756;49.064;9.290;2022-09-12T00:46:58;4.85;;;3.97;;
43152;SDS011;28756;49.064;9.290;2022-09-12T00:49:49;4.50;;;4.10;;
43152;SDS011;28756;49.064;9.290;2022-09-12T00:53:20;4.60;;;4.10;;
43152;SDS011;28756;49.064;9.290;2022-09-12T00:55:31;3.60;;;3.30;;
43152;SDS011;28756;49.064;9.290;2022-09-12T00:58:10;3.45;;;3.15;;
43152;SDS011;28756;49.064;9.290;2022-09-12T01:00:44;4.75;;;4.25;;
43152;SDS011;28756;49.064;9.290;2022-09-12T01:03:11;4.53;;;3.78;;
43152;SDS011;28756;49.064;9.290;2022-09-12T01:05:41;5.75;;;4.30;;
43152;SDS011;28756;49.064;9.290;2022-09-12T01:08:31;5.18;;;3.83;;
43152;SDS011;28756;49.064;9.290;2022-09-12T01:11:01;4.75;;;3.90;;
43152;SDS011;28756;49.064;9.290;2022-09-12T01:13:29;4.35;;;3.95;;
43152;SDS011;28756;49.064;9.290;2022-09-12T01:15:58;5.00;;;4.18;;
43152;SDS011;28756;49.064;9.290;2022-09-12T01:18:27;4.88;;;4.25;;
43152;SDS011;28756;49.064;9.290;2022-09-12T01:24:19;3.90;;;3.33;;
43152;SDS011;28756;49.064;9.290;2022-09-12T01:30:44;6.07;;;4.55;;
43152;SDS011;28756;49.064;9.290;2022-09-12T01:33:33;4.90;;;4.38;;
43152;SDS011;28756;49.064;9.290;2022-09-12T01:36:24;5.57;;;4.13;;
43152;SDS011;28756;49.064;9.290;2022-09-12T01:47:20;5.32;;;4.15;;
43152;SDS011;28756;49.064;9.290;2022-09-12T01:50:00;5.18;;;4.45;;
43152;SDS011;28756;49.064;9.290;2022-09-12T01:55:25;4.90;;;4.40;;
43152;SDS011;28756;49.064;9.290;2022-09-12T01:58:08;4.47;;;3.50;;
43152;SDS011;28756;49.064;9.290;2022-09-12T02:00:54;7.35;;;4.22;;
43152;SDS011;28756;49.064;9.290;2022-09-12T02:03:32;4.45;;;3.90;;
43152;SDS011;28756;49.064;9.290;2022-09-12T02:06:20;5.35;;;4.45;;
43152;SDS011;28756;49.064;9.290;2022-09-12T02:08:57;3.83;;;3.42;;
43152;SDS011;28756;49.064;9.290;2022-09-12T02:11:35;4.00;;;3.60;;
43152;SDS011;28756;49.064;9.290;2022-09-12T02:14:06;4.00;;;3.10;;
43152;SDS011;28756;49.064;9.290;2022-09-12T02:16:40;3.67;;;3.38;;
43152;SDS011;28756;49.064;9.290;2022-09-12T02:19:18;3.58;;;3.28;;
43152;SDS011;28756;49.064;9.290;2022-09-12T02:21:52;3.47;;;3.17;;
43152;SDS011;28756;49.064;9.290;2022-09-12T02:24:37;4.88;;;4.13;;
43152;SDS011;28756;49.064;9.290;2022-09-12T02:27:15;4.43;;;3.88;;
43152;SDS011;28756;49.064;9.290;2022-09-12T02:29:58;6.30;;;4.97;;
43152;SDS011;28756;49.064;9.290;2022-09-12T02:35:30;5.15;;;3.83;;
43152;SDS011;28756;49.064;9.290;2022-09-12T02:38:27;4.65;;;4.15;;
43152;SDS011;28756;49.064;9.290;2022-09-12T02:41:06;6.13;;;4.55;;
43152;SDS011;28756;49.064;9.290;2022-09-12T02:43:31;4.82;;;4.20;;
43152;SDS011;28756;49.064;9.290;2022-09-12T02:45:57;4.70;;;3.90;;
43152;SDS011;28756;49.064;9.290;2022-09-12T02:48:25;4.75;;;4.25;;
43152;SDS011;28756;49.064;9.290;2022-09-12T02:50:55;4.72;;;4.20;;
43152;SDS011;28756;49.064;9.290;2022-09-12T02:53:21;4.63;;;4.00;;
43152;SDS011;28756;49.064;9.290;2022-09-12T02:55:47;3.95;;;3.55;;
43152;SDS011;28756;49.064;9.290;2022-09-12T02:58:15;5.05;;;4.20;;
43152;SDS011;28756;49.064;9.290;2022-09-12T03:06:15;5.32;;;4.03;;
43152;SDS011;28756;49.064;9.290;2022-09-12T03:10:02;4.20;;;3.35;;
43152;SDS011;28756;49.064;9.290;2022-09-12T03:12:21;5.25;;;3.60;;
43152;SDS011;28756;49.064;9.290;2022-09-12T03:15:22;4.75;;;3.70;;
43152;SDS011;28756;49.064;9.290;2022-09-12T03:18:21;4.22;;;3.70;;
43152;SDS011;28756;49.064;9.290;2022-09-12T03:21:02;4.00;;;3.60;;
43152;SDS011;28756;49.064;9.290;2022-09-12T03:26:43;3.88;;;3.25;;
43152;SDS011;28756;49.064;9.290;2022-09-12T03:29:17;4.63;;;3.85;;
43152;SDS011;28756;49.064;9.290;2022-09-12T03:31:48;4.70;;;4.20;;
43152;SDS011;28756;49.064;9.290;2022-09-12T03:34:17;4.85;;;4.00;;
43152;SDS011;28756;49.064;9.290;2022-09-12T03:36:45;4.38;;;3.97;;
43152;SDS011;28756;49.064;9.290;2022-09-12T03:39:11;5.40;;;4.60;;
43152;SDS011;28756;49.064;9.290;2022-09-12T03:41:37;5.20;;;4.47;;
43152;SDS011;28756;49.064;9.290;2022-09-12T03:44:03;4.43;;;3.78;;
43152;SDS011;28756;49.064;9.290;2022-09-12T03:46:29;5.28;;;4.60;;
43152;SDS011;28756;49.064;9.290;2022-09-12T03:48:55;4.20;;;3.80;;
43152;SDS011;28756;49.064;9.290;2022-09-12T03:51:20;6.68;;;4.50;;
43152;SDS011;28756;49.064;9.290;2022-09-12T03:53:46;4.75;;;4.25;;
43152;SDS011;28756;49.064;9.290;2022-09-12T03:56:12;4.60;;;4.10;;
43152;SDS011;28756;49.064;9.290;2022-09-12T03:58:38;5.03;;;4.15;;
43152;SDS011;28756;49.064;9.290;2022-09-12T04:03:37;6.70;;;6.00;;
43152;SDS011;28756;49.064;9.290;2022-09-12T04:06:04;5.68;;;5.10;;
43152;SDS011;28756;49.064;9.290;2022-09-12T04:08:30;4.70;;;4.18;;
43152;SDS011;28756;49.064;9.290;2022-09-12T04:11:06;7.93;;;6.00;;
43152;SDS011;28756;49.064;9.290;2022-09-12T04:13:37;5.30;;;4.80;;
43152;SDS011;28756;49.064;9.290;2022-09-12T04:16:05;7.15;;;5.80;;
43152;SDS011;28756;49.064;9.290;2022-09-12T04:18:31;7.93;;;6.95;;
43152;SDS011;28756;49.064;9.290;2022-09-12T04:20:57;7.93;;;6.53;;
43152;SDS011;28756;49.064;9.290;2022-09-12T04:23:23;6.82;;;5.80;;
43152;SDS011;28756;49.064;9.290;2022-09-12T04:25:53;10.27;;;6.85;;
43152;SDS011;28756;49.064;9.290;2022-09-12T04:28:20;7.07;;;6.25;;
43152;SDS011;28756;49.064;9.290;2022-09-12T04:30:46;7.95;;;5.95;;
43152;SDS011;28756;49.064;9.290;2022-09-12T04:33:12;7.93;;;6.03;;
43152;SDS011;28756;49.064;9.290;2022-09-12T04:35:38;7.68;;;5.63;;
43152;SDS011;28756;49.064;9.290;2022-09-12T04:38:05;6.68;;;5.65;;
43152;SDS011;28756;49.064;9.290;2022-09-12T04:40:31;6.63;;;5.70;;
43152;SDS011;28756;49.064;9.290;2022-09-12T04:42:57;6.75;;;5.55;;
43152;SDS011;28756;49.064;9.290;2022-09-12T04:45:23;6.97;;;4.85;;
43152;SDS011;28756;49.064;9.290;2022-09-12T04:47:49;7.10;;;5.00;;
43152;SDS011;28756;49.064;9.290;2022-09-12T04:50:15;5.55;;;4.72;;
43152;SDS011;28756;49.064;9.290;2022-09-12T04:52:41;6.93;;;5.75;;
43152;SDS011;28756;49.064;9.290;2022-09-12T04:55:07;9.20;;;6.25;;
43152;SDS011;28756;49.064;9.290;2022-09-12T04:57:36;6.43;;;5.43;;
43152;SDS011;28756;49.064;9.290;2022-09-12T05:00:02;5.97;;;5.28;;
43152;SDS011;28756;49.064;9.290;2022-09-12T05:02:31;8.30;;;6.05;;
43152;SDS011;28756;49.064;9.290;2022-09-12T05:04:58;9.50;;;6.25;;
43152;SDS011;28756;49.064;9.290;2022-09-12T05:07:24;7.53;;;6.45;;
43152;SDS011;28756;49.064;9.290;2022-09-12T05:09:50;8.55;;;6.93;;
43152;SDS011;28756;49.064;9.290;2022-09-12T05:12:15;8.07;;;6.45;;
43152;SDS011;28756;49.064;9.290;2022-09-12T05:14:41;6.57;;;5.53;;
43152;SDS011;28756;49.064;9.290;2022-09-12T05:17:07;6.78;;;5.15;;
43152;SDS011;28756;49.064;9.290;2022-09-12T05:19:33;7.55;;;6.03;;
43152;SDS011;28756;49.064;9.290;2022-09-12T05:21:59;6.20;;;5.60;;
43152;SDS011;28756;49.064;9.290;2022-09-12T05:24:25;7.82;;;6.18;;
43152;SDS011;28756;49.064;9.290;2022-09-12T05:26:50;7.07;;;5.70;;
43152;SDS011;28756;49.064;9.290;2022-09-12T05:29:16;5.00;;;4.47;;
43152;SDS011;28756;49.064;9.290;2022-09-12T05:31:42;6.15;;;4.57;;
43152;SDS011;28756;49.064;9.290;2022-09-12T05:34:08;6.47;;;4.70;;
43152;SDS011;28756;49.064;9.290;2022-09-12T05:36:35;4.78;;;4.18;;
43152;SDS011;28756;49.064;9.290;2022-09-12T05:39:01;5.78;;;5.18;;
43152;SDS011;28756;49.064;9.290;2022-09-12T05:41:29;5.93;;;4.93;;
43152;SDS011;28756;49.064;9.290;2022-09-12T05:43:58;5.63;;;4.72;;
43152;SDS011;28756;49.064;9.290;2022-09-12T05:46:29;5.40;;;4.57;;
43152;SDS011;28756;49.064;9.290;2022-09-12T05:49:05;6.32;;;4.53;;
43152;SDS011;28756;49.064;9.290;2022-09-12T05:51:35;8.30;;;4.10;;
43152;SDS011;28756;49.064;9.290;2022-09-12T05:54:04;4.70;;;3.92;;
43152;SDS011;28756;49.064;9.290;2022-09-12T05:56:33;4.40;;;3.97;;
43152;SDS011;28756;49.064;9.290;2022-09-12T05:59:04;5.22;;;4.35;;
43152;SDS011;28756;49.064;9.290;2022-09-12T06:01:39;4.95;;;3.92;;
43152;SDS011;28756;49.064;9.290;2022-09-12T06:04:06;4.78;;;4.10;;
43152;SDS011;28756;49.064;9.290;2022-09-12T06:06:34;4.85;;;4.35;;
43152;SDS011;28756;49.064;9.290;2022-09-12T06:09:05;4.47;;;4.03;;
43152;SDS011;28756;49.064;9.290;2022-09-12T06:11:32;5.07;;;4.35;;
43152;SDS011;28756;49.064;9.290;2022-09-12T06:14:00;4.85;;;4.30;;
43152;SDS011;28756;49.064;9.290;2022-09-12T06:16:27;7.10;;;4.82;;
43152;SDS011;28756;49.064;9.290;2022-09-12T06:18:56;6.72;;;4.43;;
43152;SDS011;28756;49.064;9.290;2022-09-12T06:21:28;7.30;;;4.65;;
43152;SDS011;28756;49.064;9.290;2022-09-12T06:23:59;5.63;;;4.90;;
43152;SDS011;28756;49.064;9.290;2022-09-12T06:26:25;6.75;;;5.05;;
43152;SDS011;28756;49.064;9.290;2022-09-12T06:28:53;6.00;;;5.25;;
43152;SDS011;28756;49.064;9.290;2022-09-12T06:31:25;7.78;;;4.53;;
43152;SDS011;28756;49.064;9.290;2022-09-12T06:34:00;6.50;;;5.30;;
43152;SDS011;28756;49.064;9.290;2022-09-12T06:36:30;5.60;;;4.68;;
43152;SDS011;28756;49.064;9.290;2022-09-12T06:39:12;4.93;;;4.43;;
43152;SDS011;28756;49.064;9.290;2022-09-12T06:41:43;5.95;;;5.03;;
43152;SDS011;28756;49.064;9.290;2022-09-12T06:44:11;5.50;;;4.55;;
43152;SDS011;28756;49.064;9.290;2022-09-12T06:46:42;5.53;;;4.60;;
43152;SDS011;28756;49.064;9.290;2022-09-12T06:49:08;5.35;;;4.82;;
43152;SDS011;28756;49.064;9.290;2022-09-12T06:51:35;5.30;;;4.75;;
43152;SDS011;28756;49.064;9.290;2022-09-12T06:54:01;5.90;;;4.93;;
43152;SDS011;28756;49.064;9.290;2022-09-12T06:56:27;5.10;;;4.60;;
43152;SDS011;28756;49.064;9.290;2022-09-12T06:58:59;5.53;;;4.50;;
43152;SDS011;28756;49.064;9.290;2022-09-12T07:01:25;4.40;;;4.00;;
43152;SDS011;28756;49.064;9.290;2022-09-12T07:03:54;4.70;;;4.30;;
43152;SDS011;28756;49.064;9.290;2022-09-12T07:06:36;5.95;;;5.22;;
43152;SDS011;28756;49.064;9.290;2022-09-12T07:09:09;7.45;;;5.43;;
43152;SDS011;28756;49.064;9.290;2022-09-12T07:11:38;6.15;;;4.72;;
43152;SDS011;28756;49.064;9.290;2022-09-12T07:14:06;6.18;;;5.05;;
43152;SDS011;28756;49.064;9.290;2022-09-12T07:16:34;6.75;;;5.30;;
43152;SDS011;28756;49.064;9.290;2022-09-12T07:19:01;6.10;;;5.20;;
43152;SDS011;28756;49.064;9.290;2022-09-12T07:21:28;7.57;;;5.28;;
43152;SDS011;28756;49.064;9.290;2022-09-12T07:23:54;8.05;;;5.50;;
43152;SDS011;28756;49.064;9.290;2022-09-12T07:26:22;9.25;;;6.70;;
43152;SDS011;28756;49.064;9.290;2022-09-12T07:28:49;5.93;;;5.32;;
43152;SDS011;28756;49.064;9.290;2022-09-12T07:31:18;9.57;;;6.03;;
43152;SDS011;28756;49.064;9.290;2022-09-12T07:33:46;8.35;;;6.00;;
43152;SDS011;28756;49.064;9.290;2022-09-12T07:36:14;8.80;;;7.10;;
43152;SDS011;28756;49.064;9.290;2022-09-12T07:38:42;7.05;;;5.32;;
43152;SDS011;28756;49.064;9.290;2022-09-12T07:41:12;10.25;;;6.15;;
43152;SDS011;28756;49.064;9.290;2022-09-12T07:43:43;6.65;;;5.95;;
43152;SDS011;28756;49.064;9.290;2022-09-12T07:46:09;7.10;;;6.20;;
43152;SDS011;28756;49.064;9.290;2022-09-12T07:48:36;5.80;;;5.20;;
43152;SDS011;28756;49.064;9.290;2022-09-12T07:51:04;6.47;;;5.70;;
43152;SDS011;28756;49.064;9.290;2022-09-12T07:53:33;6.40;;;5.60;;
43152;SDS011;28756;49.064;9.290;2022-09-12T07:56:03;5.55;;;4.63;;
43152;SDS011;28756;49.064;9.290;2022-09-12T07:58:30;5.82;;;5.25;;
43152;SDS011;28756;49.064;9.290;2022-09-12T08:01:05;5.90;;;5.00;;
43152;SDS011;28756;49.064;9.290;2022-09-12T08:03:34;5.65;;;5.10;;
43152;SDS011;28756;49.064;9.290;2022-09-12T08:06:04;6.70;;;4.60;;
43152;SDS011;28756;49.064;9.290;2022-09-12T08:08:44;6.28;;;5.45;;
43152;SDS011;28756;49.064;9.290;2022-09-12T08:11:11;5.30;;;4.80;;
43152;SDS011;28756;49.064;9.290;2022-09-12T08:13:40;6.07;;;5.00;;
43152;SDS011;28756;49.064;9.290;2022-09-12T08:16:09;8.40;;;5.80;;
43152;SDS011;28756;49.064;9.290;2022-09-12T08:18:41;5.60;;;5.00;;
43152;SDS011;28756;49.064;9.290;2022-09-12T08:21:12;6.32;;;5.40;;
43152;SDS011;28756;49.064;9.290;2022-09-12T08:23:40;5.78;;;5.18;;
43152;SDS011;28756;49.064;9.290;2022-09-12T08:26:08;5.93;;;5.32;;
43152;SDS011;28756;49.064;9.290;2022-09-12T08:28:35;5.50;;;4.85;;
43152;SDS011;28756;49.064;9.290;2022-09-12T08:31:02;4.50;;;4.10;;
43152;SDS011;28756;49.064;9.290;2022-09-12T08:33:30;5.30;;;4.72;;
43152;SDS011;28756;49.064;9.290;2022-09-12T08:38:33;4.72;;;4.22;;
43152;SDS011;28756;49.064;9.290;2022-09-12T08:41:02;5.80;;;4.38;;
43152;SDS011;28756;49.064;9.290;2022-09-12T08:47:44;4.65;;;4.10;;
43152;SDS011;28756;49.064;9.290;2022-09-12T08:52:51;4.15;;;3.75;;
43152;SDS011;28756;49.064;9.290;2022-09-12T08:55:55;3.22;;;3.03;;
43152;SDS011;28756;49.064;9.290;2022-09-12T08:58:24;3.38;;;3.08;;
43152;SDS011;28756;49.064;9.290;2022-09-12T09:03:37;2.70;;;2.28;;
43152;SDS011;28756;49.064;9.290;2022-09-12T09:18:26;2.10;;;1.90;;
43152;SDS011;28756;49.064;9.290;2022-09-12T09:21:04;3.53;;;1.90;;
43152;SDS011;28756;49.064;9.290;2022-09-12T09:24:08;3.08;;;1.95;;
43152;SDS011;28756;49.064;9.290;2022-09-12T09:26:45;2.00;;;1.80;;
43152;SDS011;28756;49.064;9.290;2022-09-12T09:29:21;1.77;;;1.67;;
43152;SDS011;28756;49.064;9.290;2022-09-12T09:31:53;2.10;;;1.70;;
43152;SDS011;28756;49.064;9.290;2022-09-12T09:34:23;2.10;;;1.90;;
43152;SDS011;28756;49.064;9.290;2022-09-12T09:37:06;2.00;;;1.70;;
43152;SDS011;28756;49.064;9.290;2022-09-12T09:42:49;1.75;;;1.65;;
43152;SDS011;28756;49.064;9.290;2022-09-12T09:45:43;1.92;;;1.67;;
43152;SDS011;28756;49.064;9.290;2022-09-12T09:50:50;3.22;;;1.58;;
43152;SDS011;28756;49.064;9.290;2022-09-12T09:55:57;1.60;;;1.38;;
43152;SDS011;28756;49.064;9.290;2022-09-12T09:58:36;1.50;;;1.33;;
43152;SDS011;28756;49.064;9.290;2022-09-12T10:01:04;1.77;;;1.50;;
43152;SDS011;28756;49.064;9.290;2022-09-12T10:03:37;1.48;;;1.38;;
43152;SDS011;28756;49.064;9.290;2022-09-12T10:06:20;2.53;;;1.83;;
43152;SDS011;28756;49.064;9.290;2022-09-12T10:09:06;2.30;;;1.20;;
43152;SDS011;28756;49.064;9.290;2022-09-12T10:11:45;6.25;;;1.60;;
43152;SDS011;28756;49.064;9.290;2022-09-12T10:14:29;1.52;;;1.30;;
43152;SDS011;28756;49.064;9.290;2022-09-12T10:19:57;1.40;;;1.30;;
43152;SDS011;28756;49.064;9.290;2022-09-12T10:22:24;1.55;;;1.40;;
43152;SDS011;28756;49.064;9.290;2022-09-12T10:24:53;1.85;;;1.60;;
43152;SDS011;28756;49.064;9.290;2022-09-12T10:27:29;1.38;;;1.27;;
43152;SDS011;28756;49.064;9.290;2022-09-12T10:30:14;1.38;;;1.10;;
43152;SDS011;28756;49.064;9.290;2022-09-12T10:32:44;1.27;;;1.17;;
43152;SDS011;28756;49.064;9.290;2022-09-12T10:37:50;1.50;;;1.40;;
43152;SDS011;28756;49.064;9.290;2022-09-12T10:40:27;1.40;;;1.20;;
43152;SDS011;28756;49.064;9.290;2022-09-12T10:42:59;2.38;;;1.60;;
43152;SDS011;28756;49.064;9.290;2022-09-12T10:45:27;1.27;;;1.20;;
43152;SDS011;28756;49.064;9.290;2022-09-12T10:48:48;1.17;;;1.08;;
43152;SDS011;28756;49.064;9.290;2022-09-12T10:50:54;2.10;;;1.08;;
43152;SDS011;28756;49.064;9.290;2022-09-12T10:53:30;1.40;;;1.30;;
43152;SDS011;28756;49.064;9.290;2022-09-12T10:56:11;1.38;;;1.20;;
43152;SDS011;28756;49.064;9.290;2022-09-12T11:01:56;1.20;;;1.10;;
43152;SDS011;28756;49.064;9.290;2022-09-12T11:05:02;1.83;;;1.73;;
43152;SDS011;28756;49.064;9.290;2022-09-12T11:07:51;1.30;;;1.20;;
43152;SDS011;28756;49.064;9.290;2022-09-12T11:13:17;1.50;;;1.40;;
43152;SDS011;28756;49.064;9.290;2022-09-12T11:19:09;1.40;;;1.30;;
43152;SDS011;28756;49.064;9.290;2022-09-12T11:25:12;1.27;;;1.17;;
43152;SDS011;28756;49.064;9.290;2022-09-12T11:28:02;1.20;;;1.10;;
43152;SDS011;28756;49.064;9.290;2022-09-12T11:33:54;1.63;;;1.50;;
43152;SDS011;28756;49.064;9.290;2022-09-12T11:36:32;1.38;;;1.27;;
43152;SDS011;28756;49.064;9.290;2022-09-12T11:41:51;1.00;;;0.90;;
43152;SDS011;28756;49.064;9.290;2022-09-12T11:44:25;1.25;;;0.90;;
43152;SDS011;28756;49.064;9.290;2022-09-12T11:47:31;0.70;;;0.70;;
43152;SDS011;28756;49.064;9.290;2022-09-12T11:50:01;1.33;;;0.80;;
43152;SDS011;28756;49.064;9.290;2022-09-12T11:52:39;0.95;;;0.73;;
43152;SDS011;28756;49.064;9.290;2022-09-12T11:55:18;1.00;;;0.90;;
43152;SDS011;28756;49.064;9.290;2022-09-12T12:00:28;0.70;;;0.70;;
43152;SDS011;28756;49.064;9.290;2022-09-12T12:06:35;0.73;;;0.70;;
43152;SDS011;28756;49.064;9.290;2022-09-12T12:08:49;0.80;;;0.80;;
43152;SDS011;28756;49.064;9.290;2022-09-12T12:11:32;0.85;;;0.80;;
43152;SDS011;28756;49.064;9.290;2022-09-12T12:14:45;1.40;;;0.90;;
43152;SDS011;28756;49.064;9.290;2022-09-12T12:17:11;0.70;;;0.70;;
43152;SDS011;28756;49.064;9.290;2022-09-12T12:19:39;0.57;;;0.50;;
43152;SDS011;28756;49.064;9.290;2022-09-12T12:22:06;2.25;;;0.70;;
43152;SDS011;28756;49.064;9.290;2022-09-12T12:25:02;0.90;;;0.63;;
43152;SDS011;28756;49.064;9.290;2022-09-12T12:35:44;0.82;;;0.82;;
43152;SDS011;28756;49.064;9.290;2022-09-12T12:38:31;0.85;;;0.85;;
43152;SDS011;28756;49.064;9.290;2022-09-12T12:43:44;0.80;;;0.80;;
43152;SDS011;28756;49.064;9.290;2022-09-12T12:46:16;1.13;;;0.80;;
43152;SDS011;28756;49.064;9.290;2022-09-12T12:48:55;4.63;;;0.90;;
43152;SDS011;28756;49.064;9.290;2022-09-12T12:51:41;0.93;;;0.70;;
43152;SDS011;28756;49.064;9.290;2022-09-12T12:54:25;1.02;;;0.80;;
43152;SDS011;28756;49.064;9.290;2022-09-12T12:57:05;1.08;;;1.00;;
43152;SDS011;28756;49.064;9.290;2022-09-12T12:59:57;0.98;;;0.68;;
43152;SDS011;28756;49.064;9.290;2022-09-12T13:02:30;0.90;;;0.70;;
43152;SDS011;28756;49.064;9.290;2022-09-12T13:05:05;1.13;;;0.70;;
43152;SDS011;28756;49.064;9.290;2022-09-12T13:07:42;0.73;;;0.70;;
43152;SDS011;28756;49.064;9.290;2022-09-12T13:10:18;1.45;;;0.70;;
43152;SDS011;28756;49.064;9.290;2022-09-12T13:12:52;0.60;;;0.60;;
43152;SDS011;28756;49.064;9.290;2022-09-12T13:18:01;0.68;;;0.68;;
43152;SDS011;28756;49.064;9.290;2022-09-12T13:20:37;1.25;;;0.88;;
43152;SDS011;28756;49.064;9.290;2022-09-12T13:23:26;2.25;;;0.90;;
43152;SDS011;28756;49.064;9.290;2022-09-12T13:25:55;1.38;;;0.70;;
43152;SDS011;28756;49.064;9.290;2022-09-12T13:28:24;0.73;;;0.73;;
43152;SDS011;28756;49.064;9.290;2022-09-12T13:31:10;0.95;;;0.80;;
43152;SDS011;28756;49.064;9.290;2022-09-12T13:33:54;0.77;;;0.70;;
43152;SDS011;28756;49.064;9.290;2022-09-12T13:39:43;1.58;;;0.82;;
43152;SDS011;28756;49.064;9.290;2022-09-12T13:42:40;1.00;;;0.75;;
43152;SDS011;28756;49.064;9.290;2022-09-12T13:45:11;0.98;;;0.80;;
43152;SDS011;28756;49.064;9.290;2022-09-12T13:48:12;0.77;;;0.77;;
43152;SDS011;28756;49.064;9.290;2022-09-12T13:50:52;0.88;;;0.73;;
43152;SDS011;28756;49.064;9.290;2022-09-12T13:53:22;1.08;;;0.90;;
43152;SDS011;28756;49.064;9.290;2022-09-12T13:55:58;1.23;;;0.80;;
43152;SDS011;28756;49.064;9.290;2022-09-12T13:58:26;1.10;;;0.98;;
43152;SDS011;28756;49.064;9.290;2022-09-12T14:06:46;1.35;;;0.80;;
43152;SDS011;28756;49.064;9.290;2022-09-12T14:09:52;2.60;;;1.40;;
43152;SDS011;28756;49.064;9.290;2022-09-12T14:12:14;2.97;;;0.93;;
43152;SDS011;28756;49.064;9.290;2022-09-12T14:14:54;2.65;;;1.45;;
43152;SDS011;28756;49.064;9.290;2022-09-12T14:17:24;1.00;;;0.70;;
43152;SDS011;28756;49.064;9.290;2022-09-12T14:20:07;1.30;;;0.90;;
43152;SDS011;28756;49.064;9.290;2022-09-12T14:22:40;2.35;;;1.00;;
43152;SDS011;28756;49.064;9.290;2022-09-12T14:25:06;1.15;;;1.00;;
43152;SDS011;28756;49.064;9.290;2022-09-12T14:27:53;1.63;;;0.88;;
43152;SDS011;28756;49.064;9.290;2022-09-12T14:30:25;1.13;;;0.70;;
43152;SDS011;28756;49.064;9.290;2022-09-12T14:35:38;1.95;;;1.15;;
43152;SDS011;28756;49.064;9.290;2022-09-12T14:38:07;1.08;;;0.73;;
43152;SDS011;28756;49.064;9.290;2022-09-12T14:40:41;0.60;;;0.60;;
43152;SDS011;28756;49.064;9.290;2022-09-12T14:43:25;0.60;;;0.60;;
43152;SDS011;28756;49.064;9.290;2022-09-12T14:45:58;1.05;;;0.88;;
43152;SDS011;28756;49.064;9.290;2022-09-12T14:48:40;0.90;;;0.80;;
43152;SDS011;28756;49.064;9.290;2022-09-12T14:51:18;1.13;;;0.80;;
43152;SDS011;28756;49.064;9.290;2022-09-12T14:53:56;2.03;;;0.80;;
43152;SDS011;28756;49.064;9.290;2022-09-12T14:56:36;1.30;;;0.88;;
43152;SDS011;28756;49.064;9.290;2022-09-12T15:04:44;1.20;;;1.10;;
43152;SDS011;28756;49.064;9.290;2022-09-12T15:10:21;0.60;;;0.60;;
43152;SDS011;28756;49.064;9.290;2022-09-12T15:12:48;1.00;;;0.90;;
43152;SDS011;28756;49.064;9.290;2022-09-12T15:15:18;3.75;;;1.10;;
43152;SDS011;28756;49.064;9.290;2022-09-12T15:17:45;1.52;;;0.80;;
43152;SDS011;28756;49.064;9.290;2022-09-12T15:20:11;0.82;;;0.70;;
43152;SDS011;28756;49.064;9.290;2022-09-12T15:22:38;0.73;;;0.73;;
43152;SDS011;28756;49.064;9.290;2022-09-12T15:25:05;1.60;;;0.75;;
43152;SDS011;28756;49.064;9.290;2022-09-12T15:27:32;0.63;;;0.63;;
43152;SDS011;28756;49.064;9.290;2022-09-12T15:29:58;1.17;;;0.60;;
43152;SDS011;28756;49.064;9.290;2022-09-12T15:32:25;1.92;;;0.70;;
43152;SDS011;28756;49.064;9.290;2022-09-12T15:34:54;2.20;;;0.70;;
43152;SDS011;28756;49.064;9.290;2022-09-12T15:37:21;0.90;;;0.50;;
43152;SDS011;28756;49.064;9.290;2022-09-12T15:39:48;0.63;;;0.60;;
43152;SDS011;28756;49.064;9.290;2022-09-12T15:42:15;2.47;;;0.70;;
43152;SDS011;28756;49.064;9.290;2022-09-12T15:44:43;0.68;;;0.60;;
43152;SDS011;28756;49.064;9.290;2022-09-12T15:47:13;0.60;;;0.50;;
43152;SDS011;28756;49.064;9.290;2022-09-12T15:49:39;0.75;;;0.60;;
43152;SDS011;28756;49.064;9.290;2022-09-12T15:52:05;0.60;;;0.60;;
43152;SDS011;28756;49.064;9.290;2022-09-12T15:54:39;0.50;;;0.50;;
43152;SDS011;28756;49.064;9.290;2022-09-12T15:57:05;0.68;;;0.60;;
43152;SDS011;28756;49.064;9.290;2022-09-12T15:59:35;0.50;;;0.50;;
43152;SDS011;28756;49.064;9.290;2022-09-12T16:02:01;0.60;;;0.60;;
43152;SDS011;28756;49.064;9.290;2022-09-12T16:04:27;0.60;;;0.55;;
43152;SDS011;28756;49.064;9.290;2022-09-12T16:06:54;0.70;;;0.60;;
43152;SDS011;28756;49.064;9.290;2022-09-12T16:09:21;0.55;;;0.55;;
43152;SDS011;28756;49.064;9.290;2022-09-12T16:11:47;0.55;;;0.50;;
43152;SDS011;28756;49.064;9.290;2022-09-12T16:14:15;1.08;;;0.80;;
43152;SDS011;28756;49.064;9.290;2022-09-12T16:16:43;0.60;;;0.60;;
43152;SDS011;28756;49.064;9.290;2022-09-12T16:19:15;0.90;;;0.60;;
43152;SDS011;28756;49.064;9.290;2022-09-12T16:21:40;0.60;;;0.60;;
43152;SDS011;28756;49.064;9.290;2022-09-12T16:24:06;0.77;;;0.60;;
43152;SDS011;28756;49.064;9.290;2022-09-12T16:26:32;0.68;;;0.68;;
43152;SDS011;28756;49.064;9.290;2022-09-12T16:28:58;0.70;;;0.70;;
43152;SDS011;28756;49.064;9.290;2022-09-12T16:31:25;0.80;;;0.73;;
43152;SDS011;28756;49.064;9.290;2022-09-12T16:33:51;0.95;;;0.73;;
43152;SDS011;28756;49.064;9.290;2022-09-12T16:36:18;0.82;;;0.60;;
43152;SDS011;28756;49.064;9.290;2022-09-12T16:38:47;1.00;;;0.70;;
43152;SDS011;28756;49.064;9.290;2022-09-12T16:41:18;1.02;;;0.70;;
43152;SDS011;28756;49.064;9.290;2022-09-12T16:43:46;1.08;;;0.80;;
43152;SDS011;28756;49.064;9.290;2022-09-12T16:46:13;0.88;;;0.80;;
43152;SDS011;28756;49.064;9.290;2022-09-12T16:48:43;0.85;;;0.80;;
43152;SDS011;28756;49.064;9.290;2022-09-12T16:51:14;0.98;;;0.80;;
43152;SDS011;28756;49.064;9.290;2022-09-12T16:53:44;1.05;;;0.95;;
43152;SDS011;28756;49.064;9.290;2022-09-12T16:56:10;0.98;;;0.88;;
43152;SDS011;28756;49.064;9.290;2022-09-12T16:58:38;0.63;;;0.63;;
43152;SDS011;28756;49.064;9.290;2022-09-12T17:01:09;1.17;;;0.77;;
43152;SDS011;28756;49.064;9.290;2022-09-12T17:03:37;0.98;;;0.80;;
43152;SDS011;28756;49.064;9.290;2022-09-12T17:06:04;0.90;;;0.70;;
43152;SDS011;28756;49.064;9.290;2022-09-12T17:08:39;0.98;;;0.90;;
43152;SDS011;28756;49.064;9.290;2022-09-12T17:11:08;2.17;;;0.90;;
43152;SDS011;28756;49.064;9.290;2022-09-12T17:13:37;1.23;;;0.90;;
43152;SDS011;28756;49.064;9.290;2022-09-12T17:16:04;1.02;;;0.75;;
43152;SDS011;28756;49.064;9.290;2022-09-12T17:18:32;0.82;;;0.70;;
43152;SDS011;28756;49.064;9.290;2022-09-12T17:20:57;0.70;;;0.70;;
43152;SDS011;28756;49.064;9.290;2022-09-12T17:23:23;0.80;;;0.68;;
43152;SDS011;28756;49.064;9.290;2022-09-12T17:25:49;1.02;;;0.80;;
43152;SDS011;28756;49.064;9.290;2022-09-12T17:28:18;0.93;;;0.70;;
43152;SDS011;28756;49.064;9.290;2022-09-12T17:30:44;0.93;;;0.70;;